createdAt,value
2023-03-03T00:01:20.513Z,13.55
2023-03-03T00:03:24.355Z,11.65
2023-03-03T00:05:26.030Z,13.10
2023-03-03T00:07:27.703Z,11.30
2023-03-03T00:09:29.288Z,12.75
2023-03-03T00:11:30.904Z,13.10
2023-03-03T00:13:33.505Z,12.13
2023-03-03T00:15:36.330Z,14.07
2023-03-03T00:17:37.985Z,11.32
2023-03-03T00:19:41.345Z,12.43
2023-03-03T00:21:46.049Z,15.13
2023-03-03T00:23:47.707Z,12.68
2023-03-03T00:25:51.882Z,13.57
2023-03-03T00:27:53.814Z,11.00
2023-03-03T00:30:00.352Z,12.57
2023-03-03T00:32:04.643Z,10.43
2023-03-03T00:34:17.900Z,11.48
2023-03-03T00:36:31.612Z,11.90
2023-03-03T00:38:36.269Z,11.95
2023-03-03T00:40:39.269Z,12.85
2023-03-03T00:42:41.181Z,19.67
2023-03-03T00:44:47.473Z,9.90
2023-03-03T00:46:49.165Z,10.77
2023-03-03T00:48:51.704Z,14.88
2023-03-03T00:50:55.029Z,12.57
2023-03-03T00:53:04.463Z,10.93
2023-03-03T00:55:07.799Z,10.88
2023-03-03T00:57:09.776Z,17.90
2023-03-03T00:59:11.413Z,11.60
2023-03-03T01:01:13.150Z,10.88
2023-03-03T01:03:23.102Z,11.25
2023-03-03T01:05:24.680Z,11.13
2023-03-03T01:07:26.358Z,9.80
2023-03-03T01:09:28.065Z,12.93
2023-03-03T01:11:29.885Z,14.52
2023-03-03T01:13:33.305Z,11.35
2023-03-03T01:15:35.319Z,13.40
2023-03-03T01:17:37.128Z,15.30
2023-03-03T01:19:38.761Z,12.80
2023-03-03T01:21:40.418Z,16.05
2023-03-03T01:23:42.245Z,11.45
2023-03-03T01:25:43.849Z,12.35
2023-03-03T01:27:46.503Z,12.77
2023-03-03T01:29:48.102Z,11.75
2023-03-03T01:31:49.827Z,12.00
2023-03-03T01:33:51.433Z,12.10
2023-03-03T01:35:53.099Z,14.38
2023-03-03T01:37:54.742Z,11.30
2023-03-03T01:39:56.494Z,18.98
2023-03-03T01:41:58.403Z,11.57
2023-03-03T01:44:00.742Z,11.43
2023-03-03T01:46:02.342Z,11.65
2023-03-03T01:48:08.998Z,12.63
2023-03-03T01:50:21.188Z,11.82
2023-03-03T01:52:32.236Z,10.07
2023-03-03T01:54:41.736Z,12.00
2023-03-03T01:56:44.104Z,12.13
2023-03-03T01:58:47.536Z,12.33
2023-03-03T02:00:51.731Z,11.93
2023-03-03T02:02:54.179Z,17.00
2023-03-03T02:04:56.088Z,10.87
2023-03-03T02:07:07.012Z,11.47
2023-03-03T02:09:46.064Z,14.07
2023-03-03T02:11:51.398Z,11.37
2023-03-03T02:13:53.295Z,12.63
2023-03-03T02:15:56.725Z,10.63
2023-03-03T02:18:13.389Z,11.97
2023-03-03T02:20:25.509Z,14.23
2023-03-03T02:22:37.820Z,10.90
2023-03-03T02:24:44.722Z,12.57
2023-03-03T02:26:46.352Z,11.60
2023-03-03T02:28:48.163Z,13.17
2023-03-03T02:30:49.913Z,12.33
2023-03-03T02:32:51.580Z,12.63
2023-03-03T02:34:53.224Z,14.23
2023-03-03T02:36:54.865Z,15.20
2023-03-03T02:39:12.778Z,11.10
2023-03-03T02:41:26.135Z,11.60
2023-03-03T02:43:37.694Z,11.73
2023-03-03T02:45:43.832Z,12.30
2023-03-03T02:47:52.061Z,21.60
2023-03-03T02:49:53.686Z,13.33
2023-03-03T02:51:55.758Z,11.23
2023-03-03T02:53:57.458Z,12.17
2023-03-03T02:55:59.080Z,11.90
2023-03-03T02:58:00.822Z,15.83
2023-03-03T03:00:02.437Z,14.83
2023-03-03T03:02:04.058Z,14.47
2023-03-03T03:04:13.836Z,11.33
2023-03-03T03:06:15.557Z,13.80
2023-03-03T03:08:17.175Z,11.17
2023-03-03T03:10:18.801Z,11.17
2023-03-03T03:12:21.287Z,14.77
2023-03-03T03:14:23.974Z,14.90
2023-03-03T03:16:25.747Z,14.07
2023-03-03T03:18:28.152Z,12.67
2023-03-03T03:20:29.858Z,11.40
2023-03-03T03:22:31.481Z,11.33
2023-03-03T03:24:33.112Z,11.67
2023-03-03T03:26:34.939Z,13.70
2023-03-03T03:28:36.737Z,12.37
2023-03-03T03:30:39.551Z,11.80
2023-03-03T03:32:41.182Z,13.30
2023-03-03T03:34:42.860Z,11.33
2023-03-03T03:36:46.902Z,12.90
2023-03-03T03:38:48.619Z,11.40
2023-03-03T03:40:50.348Z,11.37
2023-03-03T03:42:52.003Z,12.50
2023-03-03T03:44:53.704Z,13.93
2023-03-03T03:46:55.384Z,12.67
2023-03-03T03:48:57.067Z,13.27
2023-03-03T03:50:58.712Z,12.43
2023-03-03T03:53:00.358Z,16.77
2023-03-03T03:55:02.121Z,12.17
2023-03-03T03:57:06.964Z,11.73
2023-03-03T03:59:08.925Z,10.97
2023-03-03T04:01:10.523Z,11.40
2023-03-03T04:03:14.632Z,11.77
2023-03-03T04:05:16.560Z,12.07
2023-03-03T04:07:18.141Z,12.70
2023-03-03T04:09:19.896Z,12.27
2023-03-03T04:11:21.597Z,14.03
2023-03-03T04:13:23.428Z,10.83
2023-03-03T04:15:25.238Z,12.20
2023-03-03T04:17:26.926Z,16.47
2023-03-03T04:19:31.108Z,12.77
2023-03-03T04:21:32.741Z,16.70
2023-03-03T04:23:34.357Z,14.53
2023-03-03T04:25:35.987Z,17.90
2023-03-03T04:27:38.220Z,15.77
2023-03-03T04:29:40.025Z,13.70
2023-03-03T04:31:41.897Z,17.03
2023-03-03T04:33:43.648Z,13.57
2023-03-03T04:35:45.696Z,15.23
2023-03-03T04:37:47.325Z,12.17
2023-03-03T04:39:48.877Z,13.47
2023-03-03T04:41:50.670Z,14.23
2023-03-03T04:43:54.937Z,12.87
2023-03-03T04:45:56.619Z,13.53
2023-03-03T04:47:58.401Z,15.57
2023-03-03T04:50:00.874Z,13.47
2023-03-03T04:52:02.597Z,13.40
2023-03-03T04:54:04.403Z,11.40
2023-03-03T04:56:06.213Z,12.50
2023-03-03T04:58:10.334Z,11.67
2023-03-03T05:00:13.630Z,13.57
2023-03-03T05:02:18.019Z,15.90
2023-03-03T05:04:19.679Z,13.23
2023-03-03T05:06:21.336Z,9.67
2023-03-03T05:08:23.483Z,16.23
2023-03-03T05:10:25.514Z,13.10
2023-03-03T05:12:27.347Z,13.27
2023-03-03T05:14:28.983Z,13.27
2023-03-03T05:16:30.719Z,15.67
2023-03-03T05:18:32.626Z,12.90
2023-03-03T05:20:34.271Z,11.43
2023-03-03T05:22:35.863Z,13.50
2023-03-03T05:24:37.571Z,12.73
2023-03-03T05:26:40.357Z,11.60
2023-03-03T05:28:41.961Z,10.80
2023-03-03T05:30:43.977Z,11.60
2023-03-03T05:32:46.851Z,12.23
2023-03-03T05:34:48.626Z,10.87
2023-03-03T05:36:50.286Z,13.70
2023-03-03T05:38:52.049Z,12.00
2023-03-03T05:40:54.908Z,12.03
2023-03-03T05:42:56.933Z,14.60
2023-03-03T05:44:58.752Z,11.70
2023-03-03T05:47:00.601Z,11.47
2023-03-03T05:49:02.676Z,11.07
2023-03-03T05:51:04.573Z,15.10
2023-03-03T05:53:06.345Z,9.87
2023-03-03T05:55:08.876Z,13.67
2023-03-03T05:57:10.668Z,13.20
2023-03-03T05:59:15.266Z,12.30
2023-03-03T06:01:17.126Z,13.50
2023-03-03T06:03:21.796Z,14.03
2023-03-03T06:05:23.480Z,19.10
2023-03-03T06:07:25.099Z,13.27
2023-03-03T06:09:26.970Z,13.23
2023-03-03T06:11:28.649Z,12.60
2023-03-03T06:13:30.429Z,14.93
2023-03-03T06:15:34.914Z,12.57
2023-03-03T06:17:36.532Z,14.30
2023-03-03T06:19:38.649Z,12.80
2023-03-03T06:21:41.064Z,27.63
2023-03-03T06:23:42.771Z,19.00
2023-03-03T06:25:44.610Z,14.97
2023-03-03T06:27:46.549Z,15.87
2023-03-03T06:29:48.472Z,14.43
2023-03-03T06:31:53.145Z,13.37
2023-03-03T06:33:54.829Z,13.47
2023-03-03T06:35:57.178Z,11.03
2023-03-03T06:37:58.894Z,10.37
2023-03-03T06:40:00.814Z,11.33
2023-03-03T06:42:02.832Z,12.00
2023-03-03T06:44:04.541Z,12.13
2023-03-03T06:46:06.423Z,11.70
2023-03-03T06:48:08.098Z,11.90
2023-03-03T06:50:13.245Z,11.87
2023-03-03T06:52:19.550Z,12.10
2023-03-03T06:54:29.482Z,12.57
2023-03-03T06:56:35.615Z,11.17
2023-03-03T06:58:37.344Z,10.30
2023-03-03T07:00:39.002Z,11.10
2023-03-03T07:02:40.854Z,10.63
2023-03-03T07:04:42.729Z,10.47
2023-03-03T07:06:44.348Z,11.77
2023-03-03T07:08:45.989Z,11.37
2023-03-03T07:10:48.445Z,11.77
2023-03-03T07:12:50.221Z,17.03
2023-03-03T07:15:17.765Z,14.93
2023-03-03T07:17:20.691Z,11.47
2023-03-03T07:19:31.135Z,12.30
2023-03-03T07:21:37.330Z,14.83
2023-03-03T07:23:43.913Z,12.43
2023-03-03T07:25:46.745Z,13.97
2023-03-03T07:27:48.388Z,11.87
2023-03-03T07:29:51.940Z,13.30
2023-03-03T07:31:57.480Z,9.10
2023-03-03T07:34:00.341Z,15.80
2023-03-03T07:36:03.794Z,7.87
2023-03-03T07:38:35.496Z,8.37
2023-03-03T07:40:39.192Z,13.70
2023-03-03T07:42:41.619Z,9.47
2023-03-03T07:44:43.572Z,10.17
2023-03-03T07:46:48.278Z,14.40
2023-03-03T07:48:50.404Z,8.80
2023-03-03T07:50:52.722Z,8.40
2023-03-03T07:52:57.294Z,12.07
2023-03-03T07:55:03.854Z,7.50
2023-03-03T07:57:17.457Z,7.38
2023-03-03T07:59:23.291Z,12.32
2023-03-03T08:01:44.779Z,9.18
2023-03-03T08:03:49.507Z,7.35
2023-03-03T08:05:51.586Z,6.90
2023-03-03T08:07:53.348Z,7.90
2023-03-03T08:10:01.612Z,8.52
2023-03-03T08:12:06.317Z,14.35
2023-03-03T08:14:11.937Z,6.35
2023-03-03T08:16:13.575Z,9.70
2023-03-03T08:18:23.497Z,14.13
2023-03-03T08:20:31.362Z,6.72
2023-03-03T08:22:36.233Z,6.43
2023-03-03T08:24:38.635Z,13.57
2023-03-03T08:26:40.361Z,13.85
2023-03-03T08:28:42.013Z,7.63
2023-03-03T08:30:44.539Z,6.95
2023-03-03T08:32:46.249Z,8.57
2023-03-03T08:34:47.906Z,8.65
2023-03-03T08:36:49.725Z,7.75
2023-03-03T08:38:51.369Z,7.82
2023-03-03T08:40:53.017Z,9.80
2023-03-03T08:42:54.669Z,9.10
2023-03-03T08:44:56.325Z,11.52
2023-03-03T08:46:57.943Z,10.80
2023-03-03T08:48:59.571Z,9.68
2023-03-03T08:51:01.311Z,9.10
2023-03-03T08:53:02.937Z,9.38
2023-03-03T08:55:06.523Z,10.60
2023-03-03T08:57:08.802Z,12.02
2023-03-03T08:59:10.763Z,13.50
2023-03-03T09:01:12.329Z,11.48
2023-03-03T09:03:13.950Z,11.52
2023-03-03T09:05:16.141Z,11.68
2023-03-03T09:07:18.291Z,10.60
2023-03-03T09:09:20.006Z,12.95
2023-03-03T09:11:27.575Z,15.23
2023-03-03T09:13:31.329Z,10.82
2023-03-03T09:15:35.693Z,10.73
2023-03-03T09:17:38.682Z,9.73
2023-03-03T09:19:40.824Z,11.05
2023-03-03T09:21:45.776Z,12.35
2023-03-03T09:23:55.075Z,11.35
2023-03-03T09:25:57.512Z,12.07
2023-03-03T09:27:59.599Z,10.70
2023-03-03T09:30:24.484Z,12.40
2023-03-03T09:32:35.822Z,13.30
2023-03-03T09:34:37.489Z,18.25
2023-03-03T09:36:39.196Z,21.98
2023-03-03T09:38:45.024Z,12.77
2023-03-03T09:40:49.240Z,9.90
2023-03-03T09:42:58.873Z,19.08
2023-03-03T09:45:18.928Z,15.23
2023-03-03T09:47:35.851Z,15.80
2023-03-03T09:49:49.549Z,13.52
2023-03-03T09:52:05.597Z,12.88
2023-03-03T09:54:27.249Z,12.50
2023-03-03T09:56:53.560Z,10.90
2023-03-03T09:59:04.201Z,13.57
2023-03-03T10:01:24.838Z,13.20
2023-03-03T10:03:37.552Z,11.05
2023-03-03T10:05:44.211Z,12.88
2023-03-03T10:08:06.993Z,12.38
2023-03-03T10:10:18.393Z,13.88
2023-03-03T10:12:19.994Z,14.82
2023-03-03T10:14:48.876Z,17.17
2023-03-03T10:17:12.535Z,15.60
2023-03-03T10:19:20.304Z,11.68
2023-03-03T10:21:30.221Z,17.38
2023-03-03T10:23:42.539Z,25.33
2023-03-03T10:26:01.251Z,15.75
2023-03-03T10:28:08.197Z,15.80
2023-03-03T10:30:40.883Z,17.83
2023-03-03T10:32:55.921Z,31.48
2023-03-03T10:35:24.530Z,18.55
2023-03-03T10:38:03.256Z,17.67
2023-03-03T10:40:21.759Z,28.55
2023-03-03T10:42:45.225Z,15.35
2023-03-03T10:45:14.057Z,25.50
2023-03-03T10:47:45.816Z,18.83
2023-03-03T10:50:07.959Z,12.23
2023-03-03T10:52:38.204Z,18.02
2023-03-03T10:55:20.945Z,16.92
2023-03-03T10:57:58.930Z,12.20
2023-03-03T11:00:22.887Z,13.38
2023-03-03T11:02:39.120Z,13.35
2023-03-03T11:05:14.368Z,13.25
2023-03-03T11:07:24.608Z,20.33
2023-03-03T11:10:07.950Z,19.92
2023-03-03T11:12:29.024Z,16.65
2023-03-03T11:15:08.119Z,12.75
2023-03-03T11:17:17.186Z,14.68
2023-03-03T11:19:28.252Z,16.90
2023-03-03T11:21:37.686Z,15.57
2023-03-03T11:23:42.889Z,17.30
2023-03-03T11:25:57.600Z,14.52
2023-03-03T11:28:08.372Z,20.10
2023-03-03T11:30:48.512Z,15.90
2023-03-03T11:33:07.432Z,15.05
2023-03-03T11:35:29.553Z,15.32
2023-03-03T11:37:56.184Z,13.48
2023-03-03T11:40:05.269Z,17.35
2023-03-03T11:42:28.335Z,21.02
2023-03-03T11:44:35.792Z,16.08
2023-03-03T11:46:43.459Z,17.60
2023-03-03T11:48:46.933Z,16.95
2023-03-03T11:51:16.961Z,19.13
2023-03-03T11:53:42.590Z,21.77
2023-03-03T11:55:50.052Z,15.57
2023-03-03T11:58:21.970Z,15.73
2023-03-03T12:00:53.469Z,20.58
2023-03-03T12:03:01.560Z,17.67
2023-03-03T12:05:17.632Z,19.95
2023-03-03T12:07:27.109Z,16.65
2023-03-03T12:09:40.517Z,18.27
2023-03-03T12:11:48.303Z,18.15
2023-03-03T12:13:59.692Z,17.80
2023-03-03T12:16:04.670Z,15.80
2023-03-03T12:18:11.851Z,15.68
2023-03-03T12:20:28.273Z,16.10
2023-03-03T12:23:05.847Z,18.38
2023-03-03T12:25:44.063Z,18.27
2023-03-03T12:27:53.944Z,16.13
2023-03-03T12:30:10.767Z,21.65
2023-03-03T12:32:37.041Z,17.40
2023-03-03T12:34:54.192Z,24.48
2023-03-03T12:37:11.216Z,18.83
2023-03-03T12:39:34.691Z,16.88
2023-03-03T12:42:06.489Z,19.85
2023-03-03T12:44:35.164Z,20.08
2023-03-03T12:46:39.955Z,17.40
2023-03-03T12:48:43.482Z,17.98
2023-03-03T12:50:51.642Z,15.73
2023-03-03T12:53:10.603Z,14.63
2023-03-03T12:55:24.578Z,18.98
2023-03-03T12:57:38.575Z,19.23
2023-03-03T13:00:11.325Z,20.05
2023-03-03T13:02:25.696Z,16.70
2023-03-03T13:04:27.657Z,31.08
2023-03-03T13:06:39.871Z,17.55
2023-03-03T13:08:57.301Z,16.90
2023-03-03T13:11:41.716Z,16.58
2023-03-03T13:14:22.508Z,14.02
2023-03-03T13:16:41.138Z,16.92
2023-03-03T13:19:17.011Z,16.90
2023-03-03T13:21:37.189Z,24.95
2023-03-03T13:24:10.782Z,15.60
2023-03-03T13:26:38.410Z,22.52
2023-03-03T13:29:08.156Z,29.33
2023-03-03T13:31:17.330Z,15.93
2023-03-03T13:33:28.459Z,17.83
2023-03-03T13:35:44.378Z,18.08
2023-03-03T13:37:48.563Z,15.85
2023-03-03T13:39:57.848Z,16.75
2023-03-03T13:42:04.025Z,16.83
2023-03-03T13:44:36.255Z,15.85
2023-03-03T13:46:44.625Z,17.25
2023-03-03T13:49:15.146Z,15.57
2023-03-03T13:51:40.227Z,17.13
2023-03-03T13:54:04.984Z,13.40
2023-03-03T13:56:15.084Z,19.25
2023-03-03T13:58:25.211Z,17.25
2023-03-03T14:00:45.522Z,16.33
2023-03-03T14:03:06.165Z,17.25
2023-03-03T14:05:16.214Z,18.38
2023-03-03T14:07:52.562Z,22.58
2023-03-03T14:10:28.367Z,18.13
2023-03-03T14:12:45.869Z,19.38
2023-03-03T14:15:07.930Z,20.10
2023-03-03T14:17:16.108Z,18.88
2023-03-03T14:19:28.834Z,22.98
2023-03-03T14:21:39.437Z,19.00
2023-03-03T14:23:59.329Z,20.25
2023-03-03T14:26:03.660Z,19.15
2023-03-03T14:28:11.585Z,16.88
2023-03-03T14:30:22.314Z,15.65
2023-03-03T14:32:39.474Z,20.05
2023-03-03T14:34:45.666Z,20.77
2023-03-03T14:36:47.354Z,14.50
2023-03-03T14:38:49.428Z,15.95
2023-03-03T14:41:12.942Z,14.13
2023-03-03T14:43:25.733Z,13.75
2023-03-03T14:45:32.074Z,17.90
2023-03-03T14:47:34.516Z,15.13
2023-03-03T14:49:38.620Z,16.15
2023-03-03T14:51:47.036Z,13.77
2023-03-03T14:53:50.176Z,19.17
2023-03-03T14:55:53.319Z,13.63
2023-03-03T14:57:55.073Z,14.05
2023-03-03T15:00:28.693Z,15.48
2023-03-03T15:02:44.919Z,14.60
2023-03-03T15:04:48.847Z,18.95
2023-03-03T15:06:52.383Z,29.85
2023-03-03T15:08:54.226Z,17.17
2023-03-03T15:11:17.431Z,18.65
2023-03-03T15:13:21.719Z,15.88
2023-03-03T15:15:25.883Z,12.98
2023-03-03T15:17:34.734Z,14.50
2023-03-03T15:19:42.737Z,14.55
2023-03-03T15:22:13.394Z,17.30
2023-03-03T15:24:41.749Z,11.65
2023-03-03T15:26:52.841Z,19.73
2023-03-03T15:29:03.256Z,11.27
2023-03-03T15:31:14.139Z,13.40
2023-03-03T15:33:34.267Z,20.15
2023-03-03T15:36:14.357Z,16.08
2023-03-03T15:38:27.909Z,16.65
2023-03-03T15:40:55.288Z,16.05
2023-03-03T15:43:15.726Z,16.40
2023-03-03T15:45:26.635Z,19.00
2023-03-03T15:47:34.828Z,19.15
2023-03-03T15:49:58.086Z,15.38
2023-03-03T15:52:13.563Z,20.38
2023-03-03T15:54:28.789Z,15.55
2023-03-03T15:56:52.847Z,19.13
2023-03-03T15:59:18.951Z,18.40
2023-03-03T16:01:33.691Z,15.07
2023-03-03T16:03:38.617Z,20.85
2023-03-03T16:05:50.013Z,18.65
2023-03-03T16:08:12.861Z,17.23
2023-03-03T16:10:21.748Z,17.27
2023-03-03T16:12:41.749Z,19.48
2023-03-03T16:15:04.786Z,19.27
2023-03-03T16:17:25.110Z,16.08
2023-03-03T16:20:09.162Z,15.40
2023-03-03T16:22:18.825Z,16.25
2023-03-03T16:24:52.310Z,16.95
2023-03-03T16:27:03.403Z,21.90
2023-03-03T16:29:49.798Z,15.18
2023-03-03T16:31:58.373Z,14.57
2023-03-03T16:34:26.592Z,20.08
2023-03-03T16:36:34.758Z,10.88
2023-03-03T16:38:42.022Z,11.65
2023-03-03T16:40:57.975Z,16.48
2023-03-03T16:43:20.570Z,15.70
2023-03-03T16:45:30.902Z,12.18
2023-03-03T16:47:47.618Z,13.88
2023-03-03T16:50:00.072Z,10.57
2023-03-03T16:52:02.325Z,12.13
2023-03-03T16:54:20.538Z,13.90
2023-03-03T16:56:24.805Z,11.40
2023-03-03T16:58:50.418Z,13.63
2023-03-03T17:00:52.414Z,10.25
2023-03-03T17:03:05.548Z,11.23
2023-03-03T17:05:29.992Z,12.95
2023-03-03T17:07:45.245Z,11.27
2023-03-03T17:10:19.122Z,12.93
2023-03-03T17:12:26.730Z,9.68
2023-03-03T17:14:31.147Z,13.00
2023-03-03T17:16:54.511Z,12.63
2023-03-03T17:19:13.456Z,10.15
2023-03-03T17:21:25.371Z,13.65
2023-03-03T17:23:48.578Z,14.70
2023-03-03T17:25:56.480Z,15.52
2023-03-03T17:28:19.279Z,14.48
2023-03-03T17:30:26.902Z,16.63
2023-03-03T17:32:34.675Z,15.68
2023-03-03T17:35:00.830Z,15.55
2023-03-03T17:37:24.139Z,15.57
2023-03-03T17:39:56.929Z,15.95
2023-03-03T17:42:17.701Z,12.98
2023-03-03T17:44:27.538Z,14.75
2023-03-03T17:46:33.177Z,16.58
2023-03-03T17:48:44.979Z,15.60
2023-03-03T17:51:37.467Z,15.10
2023-03-03T17:54:06.623Z,16.75
2023-03-03T17:56:33.923Z,21.20
2023-03-03T17:59:06.425Z,19.15
2023-03-03T18:01:16.268Z,15.88
2023-03-03T18:03:33.019Z,18.40
2023-03-03T18:05:49.870Z,17.42
2023-03-03T18:08:18.069Z,16.45
2023-03-03T18:10:38.564Z,20.33
2023-03-03T18:12:59.301Z,13.82
2023-03-03T18:15:28.303Z,18.13
2023-03-03T18:18:00.293Z,20.17
2023-03-03T18:20:22.752Z,16.70
2023-03-03T18:22:43.944Z,14.75
2023-03-03T18:24:51.449Z,16.00
2023-03-03T18:26:56.296Z,15.23
2023-03-03T18:29:16.626Z,16.85
2023-03-03T18:31:28.690Z,14.95
2023-03-03T18:33:58.560Z,15.95
2023-03-03T18:36:24.848Z,16.63
2023-03-03T18:38:30.439Z,15.45
2023-03-03T18:40:34.564Z,17.88
2023-03-03T18:42:39.679Z,15.50
2023-03-03T18:44:42.259Z,15.85
2023-03-03T18:46:48.659Z,17.17
2023-03-03T18:49:04.619Z,17.70
2023-03-03T18:51:08.256Z,20.17
2023-03-03T18:53:17.496Z,15.60
2023-03-03T18:55:19.168Z,18.75
2023-03-03T18:57:20.821Z,19.05
2023-03-03T18:59:31.282Z,25.25
2023-03-03T19:01:33.568Z,19.58
2023-03-03T19:03:58.321Z,25.83
2023-03-03T19:06:01.584Z,20.70
2023-03-03T19:08:16.745Z,26.98
2023-03-03T19:10:21.549Z,25.98
2023-03-03T19:12:41.583Z,20.15
2023-03-03T19:14:47.401Z,19.45
2023-03-03T19:16:50.562Z,23.08
2023-03-03T19:18:55.283Z,21.77
2023-03-03T19:20:58.767Z,21.15
2023-03-03T19:23:07.197Z,28.90
2023-03-03T19:25:08.838Z,23.73
2023-03-03T19:27:31.279Z,24.98
2023-03-03T19:29:45.182Z,23.33
2023-03-03T19:32:05.360Z,25.88
2023-03-03T19:34:12.959Z,27.92
2023-03-03T19:36:35.744Z,26.73
2023-03-03T19:38:46.914Z,30.35
2023-03-03T19:41:24.082Z,30.25
2023-03-03T19:44:02.705Z,29.67
2023-03-03T19:46:23.052Z,31.52
2023-03-03T19:49:11.839Z,26.80
2023-03-03T19:51:22.105Z,33.42
2023-03-03T19:53:51.245Z,36.60
2023-03-03T19:56:04.578Z,30.02
2023-03-03T19:58:06.235Z,43.63
2023-03-03T20:00:32.649Z,38.88
2023-03-03T20:02:50.232Z,30.95
2023-03-03T20:05:01.012Z,38.45
2023-03-03T20:07:29.038Z,41.05
2023-03-03T20:09:42.570Z,37.00
2023-03-03T20:12:13.201Z,36.55
2023-03-03T20:14:34.234Z,46.88
2023-03-03T20:16:41.717Z,39.50
2023-03-03T20:18:53.438Z,32.00
2023-03-03T20:21:13.182Z,37.78
2023-03-03T20:23:41.340Z,40.78
2023-03-03T20:26:12.212Z,38.00
2023-03-03T20:28:38.871Z,37.85
2023-03-03T20:31:20.233Z,29.35
2023-03-03T20:33:22.056Z,31.70
2023-03-03T20:36:02.776Z,34.83
2023-03-03T20:38:16.824Z,37.58
2023-03-03T20:40:40.326Z,35.97
2023-03-03T20:42:47.664Z,38.95
2023-03-03T20:44:56.025Z,35.55
2023-03-03T20:47:12.540Z,46.15
2023-03-03T20:49:31.087Z,40.47
2023-03-03T20:51:44.795Z,31.90
2023-03-03T20:53:58.896Z,41.08
2023-03-03T20:56:18.235Z,43.78
2023-03-03T20:58:41.128Z,53.72
2023-03-03T21:01:24.705Z,45.95
2023-03-03T21:03:52.681Z,38.00
2023-03-03T21:06:03.304Z,38.35
2023-03-03T21:08:05.554Z,40.58
2023-03-03T21:10:16.679Z,37.35
2023-03-03T21:12:29.427Z,35.42
2023-03-03T21:14:34.553Z,37.75
2023-03-03T21:16:36.281Z,43.63
2023-03-03T21:18:38.046Z,41.75
2023-03-03T21:20:39.690Z,41.00
2023-03-03T21:22:41.320Z,42.33
2023-03-03T21:24:51.467Z,42.15
2023-03-03T21:27:01.992Z,46.17
2023-03-03T21:29:03.792Z,46.05
2023-03-03T21:31:17.437Z,43.45
2023-03-03T21:33:38.527Z,40.33
2023-03-03T21:35:58.073Z,45.58
2023-03-03T21:37:59.751Z,48.67
2023-03-03T21:40:20.777Z,49.50
2023-03-03T21:42:40.067Z,44.15
2023-03-03T21:44:51.337Z,46.10
2023-03-03T21:46:52.971Z,38.88
2023-03-03T21:48:54.588Z,43.65
2023-03-03T21:50:56.209Z,42.40
2023-03-03T21:53:01.096Z,45.40
2023-03-03T21:55:02.952Z,47.20
2023-03-03T21:57:05.136Z,39.13
2023-03-03T21:59:06.737Z,39.72
2023-03-03T22:01:08.618Z,50.97
2023-03-03T22:03:11.206Z,45.70
2023-03-03T22:05:12.882Z,41.20
2023-03-03T22:07:14.578Z,44.50
2023-03-03T22:09:16.520Z,47.08
2023-03-03T22:11:18.425Z,43.22
2023-03-03T22:13:20.532Z,41.15
2023-03-03T22:15:22.207Z,45.95
2023-03-03T22:17:25.584Z,50.20
2023-03-03T22:19:27.294Z,44.22
2023-03-03T22:21:29.691Z,51.17
2023-03-03T22:23:31.892Z,48.90
2023-03-03T22:25:33.549Z,47.83
2023-03-03T22:27:35.203Z,50.40
2023-03-03T22:29:36.798Z,37.10
2023-03-03T22:31:38.481Z,50.38
2023-03-03T22:33:40.266Z,43.70
2023-03-03T22:35:42.086Z,43.63
2023-03-03T22:37:43.678Z,46.55
2023-03-03T22:39:45.356Z,46.53
2023-03-03T22:41:47.000Z,51.83
2023-03-03T22:43:48.618Z,49.03
2023-03-03T22:45:50.582Z,57.40
2023-03-03T22:47:52.208Z,46.05
2023-03-03T22:49:53.900Z,37.55
2023-03-03T22:51:58.701Z,44.95
2023-03-03T22:54:00.420Z,44.88
2023-03-03T22:56:02.094Z,49.15
2023-03-03T22:58:04.659Z,50.00
2023-03-03T23:00:09.722Z,53.60
2023-03-03T23:02:11.365Z,46.28
2023-03-03T23:04:13.031Z,46.53
2023-03-03T23:06:14.667Z,50.03
2023-03-03T23:08:17.521Z,45.17
2023-03-03T23:10:19.385Z,47.72
2023-03-03T23:12:21.075Z,40.67
2023-03-03T23:14:22.758Z,48.58
2023-03-03T23:16:24.590Z,46.85
2023-03-03T23:18:28.311Z,55.95
2023-03-03T23:20:33.415Z,49.30
2023-03-03T23:22:35.036Z,47.08
2023-03-03T23:24:36.661Z,50.58
2023-03-03T23:26:38.573Z,45.22
2023-03-03T23:28:40.155Z,55.22
2023-03-03T23:30:42.457Z,56.42
2023-03-03T23:32:44.118Z,47.08
2023-03-03T23:34:45.758Z,55.92
2023-03-03T23:36:50.528Z,58.10
2023-03-03T23:38:52.218Z,55.55
2023-03-03T23:40:53.889Z,58.25
2023-03-03T23:42:55.641Z,51.33
2023-03-03T23:44:57.650Z,51.40
2023-03-03T23:46:59.468Z,57.00
2023-03-03T23:49:02.128Z,45.60
2023-03-03T23:51:04.028Z,51.20
2023-03-03T23:53:06.221Z,58.88
2023-03-03T23:55:08.355Z,52.55
2023-03-03T23:57:10.017Z,57.13
2023-03-03T23:59:11.678Z,47.33
